createdAt,value
2022-12-26T00:00:53.942Z,100.00
2022-12-26T00:03:21.926Z,100.00
2022-12-26T00:05:50.039Z,100.00
2022-12-26T00:08:19.390Z,100.00
2022-12-26T00:10:47.400Z,100.00
2022-12-26T00:13:39.914Z,100.00
2022-12-26T00:16:08.159Z,100.00
2022-12-26T00:18:36.081Z,100.00
2022-12-26T00:21:03.998Z,100.00
2022-12-26T00:23:34.859Z,100.00
2022-12-26T00:26:05.779Z,100.00
2022-12-26T00:28:33.916Z,100.00
2022-12-26T00:31:05.912Z,100.00
2022-12-26T00:33:35.560Z,100.00
2022-12-26T00:36:04.104Z,100.00
2022-12-26T00:38:33.506Z,100.00
2022-12-26T00:41:01.679Z,100.00
2022-12-26T00:43:29.519Z,100.00
2022-12-26T00:45:57.457Z,100.00
2022-12-26T00:48:25.574Z,100.00
2022-12-26T00:50:53.872Z,100.00
2022-12-26T00:53:22.898Z,100.00
2022-12-26T00:55:52.559Z,100.00
2022-12-26T00:58:21.457Z,100.00
2022-12-26T01:00:49.741Z,100.00
2022-12-26T01:03:18.007Z,100.00
2022-12-26T01:05:47.689Z,100.00
2022-12-26T01:08:23.409Z,100.00
2022-12-26T01:10:54.309Z,100.00
2022-12-26T01:13:22.729Z,100.00
2022-12-26T01:15:51.863Z,100.00
2022-12-26T01:18:20.332Z,100.00
2022-12-26T01:20:48.990Z,100.00
2022-12-26T01:23:18.145Z,100.00
2022-12-26T01:26:18.343Z,100.00
2022-12-26T01:28:35.363Z,100.00
2022-12-26T01:31:04.468Z,100.00
2022-12-26T01:33:32.946Z,100.00
2022-12-26T01:36:01.675Z,100.00
2022-12-26T01:38:29.808Z,100.00
2022-12-26T01:41:11.550Z,100.00
2022-12-26T01:43:56.808Z,100.00
2022-12-26T01:46:30.715Z,100.00
2022-12-26T01:49:02.010Z,100.00
2022-12-26T01:51:34.162Z,100.00
2022-12-26T01:54:37.409Z,100.00
2022-12-26T01:56:53.575Z,100.00
2022-12-26T01:59:27.599Z,100.00
2022-12-26T02:01:56.862Z,100.00
2022-12-26T02:04:47.070Z,100.00
2022-12-26T02:07:15.219Z,100.00
2022-12-26T02:09:43.523Z,100.00
2022-12-26T02:12:34.589Z,100.00
2022-12-26T02:15:07.891Z,100.00
2022-12-26T02:17:35.842Z,100.00
2022-12-26T02:20:11.991Z,100.00
2022-12-26T02:23:10.665Z,100.00
2022-12-26T02:26:05.860Z,100.00
2022-12-26T02:28:53.499Z,100.00
2022-12-26T02:31:33.035Z,100.00
2022-12-26T02:34:11.302Z,100.00
2022-12-26T02:36:55.539Z,100.00
2022-12-26T02:39:44.992Z,100.00
2022-12-26T02:42:25.681Z,100.00
2022-12-26T02:45:15.952Z,100.00
2022-12-26T02:47:56.233Z,100.00
2022-12-26T02:50:49.880Z,100.00
2022-12-26T02:53:42.337Z,100.00
2022-12-26T02:56:34.868Z,100.00
2022-12-26T02:59:55.001Z,100.00
2022-12-26T03:02:42.868Z,100.00
2022-12-26T03:05:39.461Z,100.00
2022-12-26T03:08:28.291Z,100.00
2022-12-26T03:11:15.717Z,100.00
2022-12-26T03:13:46.972Z,100.00
2022-12-26T03:16:33.471Z,100.00
2022-12-26T03:19:07.161Z,100.00
2022-12-26T03:21:41.111Z,100.00
2022-12-26T03:24:12.117Z,100.00
2022-12-26T03:26:47.462Z,100.00
2022-12-26T03:29:35.941Z,100.00
2022-12-26T03:32:07.503Z,100.00
2022-12-26T03:34:38.828Z,100.00
2022-12-26T03:37:47.419Z,100.00
2022-12-26T03:40:50.948Z,100.00
2022-12-26T03:43:46.565Z,100.00
2022-12-26T03:46:41.058Z,100.00
2022-12-26T03:49:30.909Z,100.00
2022-12-26T03:52:22.054Z,100.00
2022-12-26T03:55:15.628Z,100.00
2022-12-26T03:58:09.086Z,100.00
2022-12-26T04:00:57.535Z,100.00
2022-12-26T04:03:44.759Z,100.00
2022-12-26T04:06:36.847Z,100.00
2022-12-26T04:09:28.306Z,100.00
2022-12-26T04:12:18.949Z,100.00
2022-12-26T04:15:09.838Z,100.00
2022-12-26T04:18:15.151Z,100.00
2022-12-26T04:20:52.335Z,100.00
2022-12-26T04:23:42.845Z,100.00
2022-12-26T04:26:34.420Z,100.00
2022-12-26T04:29:22.914Z,100.00
2022-12-26T04:32:20.062Z,100.00
2022-12-26T04:35:10.405Z,100.00
2022-12-26T04:38:02.061Z,100.00
2022-12-26T04:40:54.347Z,100.00
2022-12-26T04:43:49.477Z,100.00
2022-12-26T04:46:22.242Z,100.00
2022-12-26T04:49:10.255Z,100.00
2022-12-26T04:51:38.659Z,100.00
2022-12-26T04:54:07.841Z,100.00
2022-12-26T04:56:36.448Z,100.00
2022-12-26T04:59:04.438Z,100.00
2022-12-26T05:01:51.260Z,100.00
2022-12-26T05:04:37.686Z,100.00
2022-12-26T05:07:31.776Z,100.00
2022-12-26T05:09:59.578Z,100.00
2022-12-26T05:12:27.482Z,100.00
2022-12-26T05:14:55.601Z,100.00
2022-12-26T05:17:42.339Z,100.00
2022-12-26T05:20:30.002Z,100.00
2022-12-26T05:23:16.896Z,100.00
2022-12-26T05:26:12.390Z,100.00
2022-12-26T05:28:43.177Z,100.00
2022-12-26T05:31:11.477Z,100.00
2022-12-26T05:33:57.904Z,100.00
2022-12-26T05:36:30.960Z,100.00
2022-12-26T05:38:58.822Z,100.00
2022-12-26T05:41:26.688Z,100.00
2022-12-26T05:43:54.990Z,100.00
2022-12-26T05:46:22.963Z,100.00
2022-12-26T05:48:52.235Z,100.00
2022-12-26T05:51:20.200Z,100.00
2022-12-26T05:53:48.380Z,100.00
2022-12-26T05:56:17.965Z,100.00
2022-12-26T05:58:46.281Z,100.00
2022-12-26T06:01:16.154Z,100.00
2022-12-26T06:03:47.717Z,100.00
2022-12-26T06:06:17.977Z,100.00
2022-12-26T06:08:48.288Z,100.00
2022-12-26T06:11:17.295Z,100.00
2022-12-26T06:13:45.661Z,100.00
2022-12-26T06:16:16.382Z,100.00
2022-12-26T06:18:44.622Z,100.00
2022-12-26T06:21:14.375Z,100.00
2022-12-26T06:23:44.130Z,100.00
2022-12-26T06:26:13.014Z,100.00
2022-12-26T06:28:41.986Z,100.00
2022-12-26T06:31:12.572Z,100.00
2022-12-26T06:33:40.646Z,100.00
2022-12-26T06:36:11.143Z,100.00
2022-12-26T06:38:39.849Z,100.00
2022-12-26T06:41:11.907Z,100.00
2022-12-26T06:43:39.979Z,100.00
2022-12-26T06:46:11.473Z,100.00
2022-12-26T06:48:39.972Z,100.00
2022-12-26T06:51:10.853Z,100.00
2022-12-26T06:53:39.149Z,100.00
2022-12-26T06:56:10.276Z,100.00
2022-12-26T06:58:38.900Z,100.00
2022-12-26T07:01:08.888Z,100.00
2022-12-26T07:03:36.907Z,100.00
2022-12-26T07:06:06.519Z,100.00
2022-12-26T07:08:34.664Z,100.00
2022-12-26T07:11:02.670Z,100.00
2022-12-26T07:13:32.074Z,100.00
2022-12-26T07:16:00.948Z,100.00
2022-12-26T07:18:28.895Z,100.00
2022-12-26T07:20:56.773Z,100.00
2022-12-26T07:23:24.698Z,100.00
2022-12-26T07:25:52.542Z,100.00
2022-12-26T07:28:20.397Z,100.00
2022-12-26T07:30:51.467Z,100.00
2022-12-26T07:33:19.484Z,100.00
2022-12-26T07:35:47.342Z,100.00
2022-12-26T07:38:15.188Z,100.00
2022-12-26T07:40:43.051Z,100.00
2022-12-26T07:43:11.377Z,100.00
2022-12-26T07:45:45.270Z,100.00
2022-12-26T07:48:15.234Z,100.00
2022-12-26T07:50:47.170Z,100.00
2022-12-26T07:53:15.751Z,100.00
2022-12-26T07:55:43.715Z,100.00
2022-12-26T07:58:11.553Z,100.00
2022-12-26T08:00:39.588Z,100.00
2022-12-26T08:03:08.477Z,100.00
2022-12-26T08:05:37.852Z,100.00
2022-12-26T08:08:06.169Z,100.00
2022-12-26T08:10:34.326Z,100.00
2022-12-26T08:13:02.200Z,100.00
2022-12-26T08:15:30.046Z,100.00
2022-12-26T08:17:57.936Z,100.00
2022-12-26T08:20:25.884Z,100.00
2022-12-26T08:25:23.097Z,100.00
2022-12-26T08:27:51.061Z,100.00
2022-12-26T08:30:19.151Z,100.00
2022-12-26T08:32:46.987Z,100.00
2022-12-26T08:35:15.046Z,100.00
2022-12-26T08:37:43.071Z,100.00
2022-12-26T08:40:12.996Z,100.00
2022-12-26T08:43:03.050Z,100.00
2022-12-26T08:45:31.373Z,100.00
2022-12-26T08:47:59.566Z,100.00
2022-12-26T08:50:27.391Z,100.00
2022-12-26T08:52:55.293Z,100.00
2022-12-26T08:55:25.654Z,100.00
2022-12-26T08:57:53.518Z,100.00
2022-12-26T09:00:23.923Z,100.00
2022-12-26T09:02:52.014Z,100.00
2022-12-26T09:05:20.017Z,100.00
2022-12-26T09:07:48.103Z,100.00
2022-12-26T09:10:16.134Z,100.00
2022-12-26T09:12:45.464Z,100.00
2022-12-26T09:15:13.274Z,100.00
2022-12-26T09:17:41.192Z,100.00
2022-12-26T09:20:10.580Z,100.00
2022-12-26T09:22:54.258Z,100.00
2022-12-26T09:25:24.803Z,100.00
2022-12-26T09:27:59.179Z,100.00
2022-12-26T09:30:28.368Z,100.00
2022-12-26T09:32:56.308Z,100.00
2022-12-26T09:35:24.156Z,100.00
2022-12-26T09:37:52.163Z,100.00
2022-12-26T09:40:25.429Z,100.00
2022-12-26T09:43:03.740Z,100.00
2022-12-26T09:45:45.444Z,100.00
2022-12-26T09:48:20.049Z,100.00
2022-12-26T09:50:51.775Z,100.00
2022-12-26T09:53:26.106Z,100.00
2022-12-26T09:55:57.402Z,100.00
2022-12-26T09:58:29.626Z,100.00
2022-12-26T10:01:03.002Z,100.00
2022-12-26T10:03:31.762Z,100.00
2022-12-26T10:06:15.396Z,100.00
2022-12-26T10:09:19.541Z,100.00
2022-12-26T10:12:00.334Z,100.00
2022-12-26T10:14:39.878Z,100.00
2022-12-26T10:17:18.152Z,100.00
2022-12-26T10:20:06.016Z,100.00
2022-12-26T10:23:01.857Z,100.00
2022-12-26T10:25:42.859Z,100.00
2022-12-26T10:28:18.548Z,100.00
2022-12-26T10:30:49.878Z,100.00
2022-12-26T10:33:22.129Z,100.00
2022-12-26T10:35:50.587Z,100.00
2022-12-26T10:38:31.773Z,100.00
2022-12-26T10:41:05.762Z,100.00
2022-12-26T10:43:35.823Z,100.00
2022-12-26T10:46:49.911Z,100.00
2022-12-26T10:49:21.428Z,100.00
2022-12-26T10:51:49.798Z,100.00
2022-12-26T10:54:20.180Z,100.00
2022-12-26T10:56:50.661Z,100.00
2022-12-26T10:59:23.439Z,100.00
2022-12-26T11:01:53.218Z,100.00
2022-12-26T11:04:53.271Z,100.00
2022-12-26T11:07:14.000Z,100.00
2022-12-26T11:09:45.562Z,100.00
2022-12-26T11:12:22.130Z,100.00
2022-12-26T11:14:50.368Z,100.00
2022-12-26T11:17:29.223Z,100.00
2022-12-26T11:20:24.608Z,100.00
2022-12-26T11:22:52.988Z,100.00
2022-12-26T11:25:23.998Z,100.00
2022-12-26T11:27:53.897Z,100.00
2022-12-26T11:30:32.919Z,100.00
2022-12-26T11:33:17.970Z,100.00
2022-12-26T11:35:53.907Z,100.00
2022-12-26T11:38:44.935Z,100.00
2022-12-26T11:41:36.889Z,100.00
2022-12-26T11:44:19.433Z,100.00
2022-12-26T11:46:51.055Z,100.00
2022-12-26T11:49:25.439Z,100.00
2022-12-26T11:51:59.073Z,100.00
2022-12-26T11:54:34.309Z,100.00
2022-12-26T11:57:10.171Z,100.00
2022-12-26T11:59:38.123Z,100.00
2022-12-26T12:02:22.419Z,100.00
2022-12-26T12:04:54.877Z,100.00
2022-12-26T12:07:44.982Z,100.00
2022-12-26T12:10:44.828Z,100.00
2022-12-26T12:13:22.563Z,100.00
2022-12-26T12:15:58.591Z,100.00
2022-12-26T12:18:41.149Z,100.00
2022-12-26T12:21:19.943Z,100.00
2022-12-26T12:24:08.609Z,100.00
2022-12-26T12:26:47.371Z,100.00
2022-12-26T12:29:36.717Z,100.00
2022-12-26T12:32:10.331Z,99.83
2022-12-26T12:34:55.047Z,100.00
2022-12-26T12:37:31.033Z,100.00
2022-12-26T12:40:09.030Z,100.00
2022-12-26T12:42:47.794Z,100.00
2022-12-26T12:45:26.956Z,100.00
2022-12-26T12:48:10.297Z,100.00
2022-12-26T12:50:45.261Z,100.00
2022-12-26T12:53:28.198Z,100.00
2022-12-26T12:56:12.125Z,100.00
2022-12-26T12:58:47.164Z,100.00
2022-12-26T13:01:20.007Z,100.00
2022-12-26T13:03:53.542Z,100.00
2022-12-26T13:06:26.900Z,100.00
2022-12-26T13:08:59.903Z,100.00
2022-12-26T13:11:33.036Z,100.00
2022-12-26T13:14:03.944Z,100.00
2022-12-26T13:16:35.036Z,100.00
2022-12-26T13:19:06.267Z,100.00
2022-12-26T13:21:38.587Z,100.00
2022-12-26T13:24:25.796Z,100.00
2022-12-26T13:27:02.847Z,100.00
2022-12-26T13:29:40.318Z,100.00
2022-12-26T13:32:21.005Z,100.00
2022-12-26T13:34:49.733Z,100.00
2022-12-26T13:37:56.456Z,100.00
2022-12-26T13:40:33.107Z,100.00
2022-12-26T13:43:21.828Z,100.00
2022-12-26T13:45:53.947Z,100.00
2022-12-26T13:48:57.532Z,100.00
2022-12-26T13:51:51.668Z,100.00
2022-12-26T13:54:20.791Z,100.00
2022-12-26T13:57:28.297Z,100.00
2022-12-26T14:00:13.652Z,98.76
2022-12-26T14:03:22.211Z,99.59
2022-12-26T14:06:25.858Z,99.50
2022-12-26T14:09:21.818Z,99.07
2022-12-26T14:12:17.073Z,98.62
2022-12-26T14:14:59.516Z,99.69
2022-12-26T14:17:42.377Z,98.00
2022-12-26T14:20:23.920Z,98.95
2022-12-26T14:23:03.559Z,98.89
2022-12-26T14:25:48.848Z,98.46
2022-12-26T14:28:28.696Z,99.04
2022-12-26T14:31:08.108Z,98.84
2022-12-26T14:33:41.667Z,99.29
2022-12-26T14:36:22.785Z,98.23
2022-12-26T14:38:56.741Z,98.75
2022-12-26T14:41:42.642Z,99.06
2022-12-26T14:44:18.119Z,98.33
2022-12-26T14:47:02.674Z,99.20
2022-12-26T14:49:42.232Z,99.29
2022-12-26T14:52:34.374Z,98.14
2022-12-26T14:55:46.785Z,98.50
2022-12-26T14:58:29.820Z,99.00
2022-12-26T15:01:37.887Z,99.00
2022-12-26T15:04:22.018Z,98.70
2022-12-26T15:07:18.613Z,98.01
2022-12-26T15:10:26.523Z,97.93
2022-12-26T15:13:18.596Z,97.20
2022-12-26T15:16:02.938Z,96.79
2022-12-26T15:18:59.652Z,96.83
2022-12-26T15:21:52.051Z,95.24
2022-12-26T15:25:16.910Z,96.40
2022-12-26T15:27:43.988Z,96.69
2022-12-26T15:30:21.629Z,97.53
2022-12-26T15:33:00.182Z,96.71
2022-12-26T15:35:33.686Z,95.92
2022-12-26T15:38:22.565Z,94.13
2022-12-26T15:40:56.660Z,94.18
2022-12-26T15:43:43.524Z,94.72
2022-12-26T15:46:19.198Z,95.07
2022-12-26T15:49:05.324Z,94.50
2022-12-26T15:51:44.535Z,94.63
2022-12-26T15:54:29.556Z,94.45
2022-12-26T15:57:11.948Z,95.20
2022-12-26T16:00:04.494Z,92.93
2022-12-26T16:02:38.051Z,94.66
2022-12-26T16:05:27.431Z,93.82
2022-12-26T16:08:05.220Z,93.89
2022-12-26T16:10:37.003Z,91.89
2022-12-26T16:13:17.943Z,92.52
2022-12-26T16:15:47.314Z,92.51
2022-12-26T16:18:16.579Z,93.48
2022-12-26T16:21:03.932Z,94.24
2022-12-26T16:23:36.386Z,93.46
2022-12-26T16:26:05.723Z,93.44
2022-12-26T16:28:37.756Z,92.00
2022-12-26T16:31:06.814Z,92.51
2022-12-26T16:33:41.124Z,91.99
2022-12-26T16:36:10.937Z,91.36
2022-12-26T16:38:39.289Z,92.62
2022-12-26T16:41:22.121Z,92.43
2022-12-26T16:43:51.010Z,93.42
2022-12-26T16:46:22.677Z,93.17
2022-12-26T16:48:56.295Z,93.45
2022-12-26T16:51:41.737Z,92.98
2022-12-26T16:54:18.350Z,93.78
2022-12-26T16:56:53.119Z,93.79
2022-12-26T16:59:23.789Z,94.23
2022-12-26T17:01:54.480Z,93.37
2022-12-26T17:04:24.537Z,94.15
2022-12-26T17:06:55.933Z,92.45
2022-12-26T17:09:25.891Z,92.82
2022-12-26T17:11:59.037Z,93.15
2022-12-26T17:14:29.658Z,94.35
2022-12-26T17:16:59.367Z,94.92
2022-12-26T17:19:29.938Z,94.15
2022-12-26T17:22:21.298Z,94.16
2022-12-26T17:24:50.827Z,94.29
2022-12-26T17:27:23.416Z,94.21
2022-12-26T17:29:57.313Z,93.89
2022-12-26T17:32:31.212Z,93.15
2022-12-26T17:35:03.065Z,94.41
2022-12-26T17:37:31.744Z,94.26
2022-12-26T17:40:08.017Z,94.40
2022-12-26T17:42:47.354Z,94.32
2022-12-26T17:45:17.755Z,93.85
2022-12-26T17:47:46.089Z,94.49
2022-12-26T17:50:14.684Z,93.69
2022-12-26T17:52:43.497Z,94.58
2022-12-26T17:55:16.995Z,94.17
2022-12-26T17:57:46.198Z,94.67
2022-12-26T18:00:19.992Z,94.34
2022-12-26T18:02:48.092Z,93.78
2022-12-26T18:05:16.755Z,95.14
2022-12-26T18:07:45.639Z,93.85
2022-12-26T18:10:18.391Z,94.39
2022-12-26T18:12:47.664Z,94.07
2022-12-26T18:15:15.731Z,93.49
2022-12-26T18:17:43.734Z,93.91
2022-12-26T18:20:17.020Z,92.72
2022-12-26T18:22:44.866Z,93.97
2022-12-26T18:25:13.887Z,93.81
2022-12-26T18:27:41.949Z,93.05
2022-12-26T18:30:17.564Z,93.39
2022-12-26T18:32:45.983Z,93.75
2022-12-26T18:35:15.053Z,93.67
2022-12-26T18:37:46.654Z,94.16
2022-12-26T18:40:27.306Z,94.38
2022-12-26T18:42:55.172Z,94.21
2022-12-26T18:45:24.628Z,93.78
2022-12-26T18:47:52.503Z,94.47
2022-12-26T18:50:20.844Z,94.06
2022-12-26T18:52:53.542Z,93.35
2022-12-26T18:55:22.264Z,93.48
2022-12-26T18:57:50.159Z,94.20
2022-12-26T19:00:18.786Z,94.31
2022-12-26T19:02:48.770Z,94.73
2022-12-26T19:05:19.406Z,94.95
2022-12-26T19:07:48.571Z,96.25
2022-12-26T19:10:17.771Z,96.00
2022-12-26T19:12:46.469Z,94.55
2022-12-26T19:15:15.512Z,95.36
2022-12-26T19:17:44.058Z,94.88
2022-12-26T19:20:19.522Z,94.48
2022-12-26T19:22:48.516Z,94.29
2022-12-26T19:25:17.583Z,94.52
2022-12-26T19:27:46.068Z,95.02
2022-12-26T19:30:15.427Z,95.04
2022-12-26T19:32:43.644Z,95.75
2022-12-26T19:35:14.268Z,94.62
2022-12-26T19:37:42.699Z,95.72
2022-12-26T19:40:12.378Z,94.88
2022-12-26T19:42:40.574Z,95.40
2022-12-26T19:45:11.161Z,95.22
2022-12-26T19:47:39.350Z,95.56
2022-12-26T19:50:09.416Z,94.90
2022-12-26T19:52:40.701Z,95.76
2022-12-26T19:55:11.978Z,94.50
2022-12-26T19:57:39.843Z,95.31
2022-12-26T20:00:09.469Z,94.71
2022-12-26T20:02:37.359Z,94.73
2022-12-26T20:05:06.155Z,95.29
2022-12-26T20:07:34.453Z,94.96
2022-12-26T20:10:04.144Z,94.89
2022-12-26T20:12:32.053Z,95.19
2022-12-26T20:14:59.929Z,94.79
2022-12-26T20:17:27.807Z,95.42
2022-12-26T20:19:55.908Z,94.63
2022-12-26T20:22:24.210Z,95.53
2022-12-26T20:24:52.272Z,94.91
2022-12-26T20:27:21.482Z,95.29
2022-12-26T20:29:49.318Z,94.61
2022-12-26T20:32:17.291Z,94.47
2022-12-26T20:34:45.095Z,95.24
2022-12-26T20:37:12.924Z,94.72
2022-12-26T20:39:40.815Z,94.99
2022-12-26T20:42:08.725Z,95.07
2022-12-26T20:44:41.389Z,95.58
2022-12-26T20:47:09.666Z,94.71
2022-12-26T20:49:37.731Z,94.87
2022-12-26T20:52:05.916Z,95.27
2022-12-26T20:54:33.781Z,96.12
2022-12-26T20:57:02.926Z,95.88
2022-12-26T20:59:30.787Z,95.77
2022-12-26T21:02:00.417Z,94.75
2022-12-26T21:04:28.471Z,96.46
2022-12-26T21:06:56.271Z,96.50
2022-12-26T21:09:24.135Z,95.92
2022-12-26T21:11:52.001Z,95.50
2022-12-26T21:14:22.528Z,95.04
2022-12-26T21:16:51.959Z,96.24
2022-12-26T21:19:22.225Z,95.00
2022-12-26T21:21:53.556Z,95.36
2022-12-26T21:24:23.708Z,95.48
2022-12-26T21:26:52.546Z,95.92
2022-12-26T21:29:22.550Z,95.89
2022-12-26T21:31:50.805Z,94.92
2022-12-26T21:34:20.527Z,95.06
2022-12-26T21:37:04.217Z,95.58
2022-12-26T21:39:32.495Z,94.49
2022-12-26T21:42:01.148Z,95.09
2022-12-26T21:44:29.298Z,95.62
2022-12-26T21:46:57.229Z,94.95
2022-12-26T21:49:25.033Z,94.38
2022-12-26T21:51:54.382Z,94.71
2022-12-26T21:54:44.874Z,95.38
2022-12-26T21:57:16.672Z,94.65
2022-12-26T22:00:00.036Z,94.85
2022-12-26T22:02:48.200Z,95.20
2022-12-26T22:05:16.645Z,94.94
2022-12-26T22:07:46.568Z,94.73
2022-12-26T22:10:35.513Z,93.90
2022-12-26T22:13:03.157Z,94.38
2022-12-26T22:15:48.679Z,94.28
2022-12-26T22:18:17.072Z,94.54
2022-12-26T22:20:46.159Z,94.67
2022-12-26T22:23:15.905Z,94.75
2022-12-26T22:25:44.106Z,94.85
2022-12-26T22:28:12.027Z,94.27
2022-12-26T22:30:40.021Z,94.12
2022-12-26T22:33:07.900Z,95.33
2022-12-26T22:35:35.775Z,95.36
2022-12-26T22:38:03.657Z,95.75
2022-12-26T22:40:32.801Z,93.93
2022-12-26T22:43:00.658Z,95.70
2022-12-26T22:45:28.506Z,94.87
2022-12-26T22:47:56.501Z,95.10
2022-12-26T22:50:24.631Z,95.35
2022-12-26T22:52:53.069Z,95.54
2022-12-26T22:55:20.866Z,95.30
2022-12-26T22:57:52.761Z,95.04
2022-12-26T23:00:21.397Z,96.05
2022-12-26T23:02:49.339Z,95.42
2022-12-26T23:05:17.940Z,95.62
2022-12-26T23:07:46.497Z,95.23
2022-12-26T23:10:21.559Z,94.71
2022-12-26T23:12:51.276Z,95.23
2022-12-26T23:15:21.141Z,95.64
2022-12-26T23:18:14.121Z,95.35
2022-12-26T23:20:59.607Z,95.78
2022-12-26T23:23:27.943Z,96.14
2022-12-26T23:25:55.850Z,95.67
2022-12-26T23:28:42.429Z,95.60
2022-12-26T23:31:10.385Z,95.22
2022-12-26T23:33:38.248Z,96.33
2022-12-26T23:36:06.487Z,95.92
2022-12-26T23:38:34.288Z,95.80
2022-12-26T23:41:02.374Z,97.13
2022-12-26T23:43:33.457Z,96.46
2022-12-26T23:46:01.576Z,96.85
2022-12-26T23:48:29.590Z,95.92
2022-12-26T23:51:04.576Z,96.20
2022-12-26T23:53:32.640Z,95.88
2022-12-26T23:56:00.629Z,96.68
2022-12-26T23:58:28.618Z,96.42
